sensor_id;sensor_type;location;lat;lon;timestamp;temperature;humidity
2653;DHT22;1336;48.692;9.144;2022-09-03T05:00:36;18.70;97.20
2653;DHT22;1336;48.692;9.144;2022-09-03T05:01:29;18.70;97.20
2653;DHT22;1336;48.692;9.144;2022-09-03T05:02:20;18.60;97.20
2653;DHT22;1336;48.692;9.144;2022-09-03T05:03:12;18.60;97.20
2653;DHT22;1336;48.692;9.144;2022-09-03T05:04:03;18.60;97.20
2653;DHT22;1336;48.692;9.144;2022-09-03T05:04:56;18.60;97.20
2653;DHT22;1336;48.692;9.144;2022-09-03T05:05:53;18.60;97.20
2653;DHT22;1336;48.692;9.144;2022-09-03T05:06:45;18.70;97.20
2653;DHT22;1336;48.692;9.144;2022-09-03T05:07:36;18.70;97.20
2653;DHT22;1336;48.692;9.144;2022-09-03T05:08:29;18.70;97.20
2653;DHT22;1336;48.692;9.144;2022-09-03T05:09:19;18.70;97.20
2653;DHT22;1336;48.692;9.144;2022-09-03T05:10:13;18.70;97.20
2653;DHT22;1336;48.692;9.144;2022-09-03T05:11:09;18.70;97.20
2653;DHT22;1336;48.692;9.144;2022-09-03T05:12:01;18.70;97.20
2653;DHT22;1336;48.692;9.144;2022-09-03T05:12:57;18.70;97.20
2653;DHT22;1336;48.692;9.144;2022-09-03T05:13:51;18.70;97.20
2653;DHT22;1336;48.692;9.144;2022-09-03T05:14:43;18.70;97.20
2653;DHT22;1336;48.692;9.144;2022-09-03T05:15:34;18.80;97.20
2653;DHT22;1336;48.692;9.144;2022-09-03T05:16:28;18.80;97.20
2653;DHT22;1336;48.692;9.144;2022-09-03T05:17:20;18.80;97.20
2653;DHT22;1336;48.692;9.144;2022-09-03T05:18:11;18.80;97.20
2653;DHT22;1336;48.692;9.144;2022-09-03T05:19:03;18.80;97.20
2653;DHT22;1336;48.692;9.144;2022-09-03T05:19:57;18.80;97.20
2653;DHT22;1336;48.692;9.144;2022-09-03T05:20:57;18.80;97.20
2653;DHT22;1336;48.692;9.144;2022-09-03T05:21:49;18.80;97.20
2653;DHT22;1336;48.692;9.144;2022-09-03T05:22:40;18.80;97.20
2653;DHT22;1336;48.692;9.144;2022-09-03T05:23:34;18.80;97.20
2653;DHT22;1336;48.692;9.144;2022-09-03T05:24:26;18.80;97.20
2653;DHT22;1336;48.692;9.144;2022-09-03T05:25:18;18.80;97.20
2653;DHT22;1336;48.692;9.144;2022-09-03T05:26:10;18.80;97.20
2653;DHT22;1336;48.692;9.144;2022-09-03T05:27:03;18.80;97.20
2653;DHT22;1336;48.692;9.144;2022-09-03T05:27:53;18.80;97.20
2653;DHT22;1336;48.692;9.144;2022-09-03T05:28:45;18.80;97.20
2653;DHT22;1336;48.692;9.144;2022-09-03T05:29:36;18.90;97.20
2653;DHT22;1336;48.692;9.144;2022-09-03T05:30:28;18.90;97.20
2653;DHT22;1336;48.692;9.144;2022-09-03T05:31:19;18.90;97.20
2653;DHT22;1336;48.692;9.144;2022-09-03T05:32:12;18.90;97.20
2653;DHT22;1336;48.692;9.144;2022-09-03T05:33:05;18.90;97.20
2653;DHT22;1336;48.692;9.144;2022-09-03T05:33:59;18.90;97.20
2653;DHT22;1336;48.692;9.144;2022-09-03T05:34:50;18.90;97.20
2653;DHT22;1336;48.692;9.144;2022-09-03T05:35:43;18.90;97.20
2653;DHT22;1336;48.692;9.144;2022-09-03T05:36:35;18.90;97.20
2653;DHT22;1336;48.692;9.144;2022-09-03T05:37:27;18.90;97.20
2653;DHT22;1336;48.692;9.144;2022-09-03T05:38:18;18.90;97.20
2653;DHT22;1336;48.692;9.144;2022-09-03T05:39:10;18.90;97.20
2653;DHT22;1336;48.692;9.144;2022-09-03T05:40:03;18.90;97.20
2653;DHT22;1336;48.692;9.144;2022-09-03T05:40:57;18.90;97.20
2653;DHT22;1336;48.692;9.144;2022-09-03T05:41:49;18.90;97.20
2653;DHT22;1336;48.692;9.144;2022-09-03T05:42:41;18.90;97.20
2653;DHT22;1336;48.692;9.144;2022-09-03T05:43:34;19.00;97.20
2653;DHT22;1336;48.692;9.144;2022-09-03T05:44:25;19.00;97.20
2653;DHT22;1336;48.692;9.144;2022-09-03T05:45:16;19.00;97.20
2653;DHT22;1336;48.692;9.144;2022-09-03T05:46:08;19.00;97.20
2653;DHT22;1336;48.692;9.144;2022-09-03T05:47:00;19.00;97.20
2653;DHT22;1336;48.692;9.144;2022-09-03T05:47:53;19.00;97.20
2653;DHT22;1336;48.692;9.144;2022-09-03T05:48:44;19.00;97.20
2653;DHT22;1336;48.692;9.144;2022-09-03T05:49:35;19.00;97.20
2653;DHT22;1336;48.692;9.144;2022-09-03T05:50:27;19.00;97.20
2653;DHT22;1336;48.692;9.144;2022-09-03T05:51:18;19.10;97.20
2653;DHT22;1336;48.692;9.144;2022-09-03T05:52:10;19.10;97.20
2653;DHT22;1336;48.692;9.144;2022-09-03T05:53:01;19.10;97.20
2653;DHT22;1336;48.692;9.144;2022-09-03T05:53:53;19.10;97.20
2653;DHT22;1336;48.692;9.144;2022-09-03T05:54:45;19.10;97.20
2653;DHT22;1336;48.692;9.144;2022-09-03T05:55:37;19.10;97.20
2653;DHT22;1336;48.692;9.144;2022-09-03T05:56:29;19.10;97.20
2653;DHT22;1336;48.692;9.144;2022-09-03T05:57:21;19.20;97.20
2653;DHT22;1336;48.692;9.144;2022-09-03T05:58:12;19.10;97.20
2653;DHT22;1336;48.692;9.144;2022-09-03T05:59:06;19.10;97.20
2653;DHT22;1336;48.692;9.144;2022-09-03T05:59:58;19.20;97.20
2653;DHT22;1336;48.692;9.144;2022-09-03T06:00:51;19.20;97.20
2653;DHT22;1336;48.692;9.144;2022-09-03T06:01:43;19.20;97.20
2653;DHT22;1336;48.692;9.144;2022-09-03T06:02:36;19.20;97.20
2653;DHT22;1336;48.692;9.144;2022-09-03T06:03:28;19.20;97.20
2653;DHT22;1336;48.692;9.144;2022-09-03T06:04:19;19.20;97.20
2653;DHT22;1336;48.692;9.144;2022-09-03T06:05:10;19.20;97.20
2653;DHT22;1336;48.692;9.144;2022-09-03T06:06:02;19.20;97.20
2653;DHT22;1336;48.692;9.144;2022-09-03T06:06:55;19.20;97.20
2653;DHT22;1336;48.692;9.144;2022-09-03T06:07:46;19.20;97.20
2653;DHT22;1336;48.692;9.144;2022-09-03T06:08:39;19.20;97.20
2653;DHT22;1336;48.692;9.144;2022-09-03T06:09:31;19.20;97.20
2653;DHT22;1336;48.692;9.144;2022-09-03T06:10:22;19.20;97.20
2653;DHT22;1336;48.692;9.144;2022-09-03T06:11:14;19.10;97.20
2653;DHT22;1336;48.692;9.144;2022-09-03T06:12:05;19.10;97.20
2653;DHT22;1336;48.692;9.144;2022-09-03T06:12:56;19.10;97.20
2653;DHT22;1336;48.692;9.144;2022-09-03T06:13:53;19.10;97.20
2653;DHT22;1336;48.692;9.144;2022-09-03T06:14:46;19.10;97.20
2653;DHT22;1336;48.692;9.144;2022-09-03T06:15:36;19.10;97.20
2653;DHT22;1336;48.692;9.144;2022-09-03T06:16:29;19.10;97.20
2653;DHT22;1336;48.692;9.144;2022-09-03T06:17:20;19.10;97.20
2653;DHT22;1336;48.692;9.144;2022-09-03T06:18:12;19.10;97.20
2653;DHT22;1336;48.692;9.144;2022-09-03T06:19:05;19.10;97.20
2653;DHT22;1336;48.692;9.144;2022-09-03T06:19:59;19.10;97.20
2653;DHT22;1336;48.692;9.144;2022-09-03T06:20:53;19.10;97.20
2653;DHT22;1336;48.692;9.144;2022-09-03T06:21:46;19.10;97.20
2653;DHT22;1336;48.692;9.144;2022-09-03T06:22:37;19.10;97.20
2653;DHT22;1336;48.692;9.144;2022-09-03T06:23:29;19.10;97.20
2653;DHT22;1336;48.692;9.144;2022-09-03T06:24:20;19.20;97.20
2653;DHT22;1336;48.692;9.144;2022-09-03T06:25:14;19.20;97.20
2653;DHT22;1336;48.692;9.144;2022-09-03T06:26:06;19.20;97.20
2653;DHT22;1336;48.692;9.144;2022-09-03T06:26:58;19.20;97.20
2653;DHT22;1336;48.692;9.144;2022-09-03T06:27:49;19.20;97.20
2653;DHT22;1336;48.692;9.144;2022-09-03T06:28:42;19.20;97.20
2653;DHT22;1336;48.692;9.144;2022-09-03T06:29:33;19.30;97.20
2653;DHT22;1336;48.692;9.144;2022-09-03T06:30:27;19.30;97.20
2653;DHT22;1336;48.692;9.144;2022-09-03T06:31:18;19.30;97.20
2653;DHT22;1336;48.692;9.144;2022-09-03T06:32:10;19.30;97.20
2653;DHT22;1336;48.692;9.144;2022-09-03T06:33:03;19.30;97.20
2653;DHT22;1336;48.692;9.144;2022-09-03T06:33:54;19.40;97.20
2653;DHT22;1336;48.692;9.144;2022-09-03T06:34:47;19.40;97.20
2653;DHT22;1336;48.692;9.144;2022-09-03T06:35:38;19.40;97.20
2653;DHT22;1336;48.692;9.144;2022-09-03T06:36:31;19.40;97.20
2653;DHT22;1336;48.692;9.144;2022-09-03T06:37:22;19.40;97.20
2653;DHT22;1336;48.692;9.144;2022-09-03T06:38:14;19.40;97.20
2653;DHT22;1336;48.692;9.144;2022-09-03T06:39:05;19.50;97.20
2653;DHT22;1336;48.692;9.144;2022-09-03T06:39:56;19.50;97.20
2653;DHT22;1336;48.692;9.144;2022-09-03T06:40:51;19.50;97.20
2653;DHT22;1336;48.692;9.144;2022-09-03T06:41:43;19.50;97.20
2653;DHT22;1336;48.692;9.144;2022-09-03T06:42:34;19.50;97.20
2653;DHT22;1336;48.692;9.144;2022-09-03T06:43:26;19.50;97.20
2653;DHT22;1336;48.692;9.144;2022-09-03T06:44:16;19.50;97.20
2653;DHT22;1336;48.692;9.144;2022-09-03T06:45:09;19.50;97.20
2653;DHT22;1336;48.692;9.144;2022-09-03T06:46:02;19.50;97.20
2653;DHT22;1336;48.692;9.144;2022-09-03T06:46:54;19.50;97.20
2653;DHT22;1336;48.692;9.144;2022-09-03T06:47:45;19.50;97.20
2653;DHT22;1336;48.692;9.144;2022-09-03T06:48:38;19.50;97.20
2653;DHT22;1336;48.692;9.144;2022-09-03T06:49:28;19.50;97.20
2653;DHT22;1336;48.692;9.144;2022-09-03T06:50:22;19.50;97.20
2653;DHT22;1336;48.692;9.144;2022-09-03T06:51:15;19.60;97.20
2653;DHT22;1336;48.692;9.144;2022-09-03T06:52:07;19.60;97.20
2653;DHT22;1336;48.692;9.144;2022-09-03T06:52:58;19.60;97.20
2653;DHT22;1336;48.692;9.144;2022-09-03T06:53:51;19.60;97.20
2653;DHT22;1336;48.692;9.144;2022-09-03T06:54:42;19.60;97.20
2653;DHT22;1336;48.692;9.144;2022-09-03T06:55:33;19.60;97.20
2653;DHT22;1336;48.692;9.144;2022-09-03T06:56:25;19.60;97.20
2653;DHT22;1336;48.692;9.144;2022-09-03T06:57:17;19.60;97.20
2653;DHT22;1336;48.692;9.144;2022-09-03T06:58:07;19.60;97.20
2653;DHT22;1336;48.692;9.144;2022-09-03T06:59:03;19.60;97.20
2653;DHT22;1336;48.692;9.144;2022-09-03T06:59:54;19.70;97.20
2653;DHT22;1336;48.692;9.144;2022-09-03T07:00:46;19.70;97.20
2653;DHT22;1336;48.692;9.144;2022-09-03T07:01:39;19.70;97.20
2653;DHT22;1336;48.692;9.144;2022-09-03T07:02:31;19.70;97.20
2653;DHT22;1336;48.692;9.144;2022-09-03T07:03:22;19.70;97.20
2653;DHT22;1336;48.692;9.144;2022-09-03T07:04:14;19.80;97.20
2653;DHT22;1336;48.692;9.144;2022-09-03T07:05:06;19.80;97.20
2653;DHT22;1336;48.692;9.144;2022-09-03T07:06:04;19.80;97.20
2653;DHT22;1336;48.692;9.144;2022-09-03T07:06:55;19.80;97.20
2653;DHT22;1336;48.692;9.144;2022-09-03T07:07:47;19.80;97.20
2653;DHT22;1336;48.692;9.144;2022-09-03T07:08:38;19.80;97.20
2653;DHT22;1336;48.692;9.144;2022-09-03T07:09:31;19.80;97.20
2653;DHT22;1336;48.692;9.144;2022-09-03T07:10:25;19.90;97.20
2653;DHT22;1336;48.692;9.144;2022-09-03T07:11:18;19.90;97.20
2653;DHT22;1336;48.692;9.144;2022-09-03T07:12:11;19.90;97.20
2653;DHT22;1336;48.692;9.144;2022-09-03T07:13:05;19.90;97.20
2653;DHT22;1336;48.692;9.144;2022-09-03T07:13:57;19.90;97.20
2653;DHT22;1336;48.692;9.144;2022-09-03T07:14:49;19.90;97.20
2653;DHT22;1336;48.692;9.144;2022-09-03T07:15:40;19.90;97.20
2653;DHT22;1336;48.692;9.144;2022-09-03T07:16:33;20.00;97.20
2653;DHT22;1336;48.692;9.144;2022-09-03T07:17:24;20.00;97.20
2653;DHT22;1336;48.692;9.144;2022-09-03T07:18:16;20.00;97.20
2653;DHT22;1336;48.692;9.144;2022-09-03T07:19:07;20.00;97.20
2653;DHT22;1336;48.692;9.144;2022-09-03T07:19:59;20.00;97.20
2653;DHT22;1336;48.692;9.144;2022-09-03T07:20:50;20.00;97.20
2653;DHT22;1336;48.692;9.144;2022-09-03T07:21:43;20.00;97.20
2653;DHT22;1336;48.692;9.144;2022-09-03T07:22:35;20.10;97.20
2653;DHT22;1336;48.692;9.144;2022-09-03T07:23:27;20.10;97.20
2653;DHT22;1336;48.692;9.144;2022-09-03T07:24:18;20.10;97.20
2653;DHT22;1336;48.692;9.144;2022-09-03T07:25:11;20.10;97.20
2653;DHT22;1336;48.692;9.144;2022-09-03T07:26:05;20.10;97.20
2653;DHT22;1336;48.692;9.144;2022-09-03T07:26:57;20.20;97.20
2653;DHT22;1336;48.692;9.144;2022-09-03T07:27:49;20.20;97.20
2653;DHT22;1336;48.692;9.144;2022-09-03T07:28:42;20.20;97.20
2653;DHT22;1336;48.692;9.144;2022-09-03T07:29:35;20.20;97.20
2653;DHT22;1336;48.692;9.144;2022-09-03T07:30:26;20.20;97.20
2653;DHT22;1336;48.692;9.144;2022-09-03T07:31:19;20.20;97.20
2653;DHT22;1336;48.692;9.144;2022-09-03T07:32:12;20.30;97.20
2653;DHT22;1336;48.692;9.144;2022-09-03T07:33:03;20.30;97.20
2653;DHT22;1336;48.692;9.144;2022-09-03T07:33:57;20.30;97.20
2653;DHT22;1336;48.692;9.144;2022-09-03T07:34:49;20.30;97.20
2653;DHT22;1336;48.692;9.144;2022-09-03T07:35:42;20.30;97.20
2653;DHT22;1336;48.692;9.144;2022-09-03T07:36:35;20.30;97.20
2653;DHT22;1336;48.692;9.144;2022-09-03T07:37:29;20.30;97.20
2653;DHT22;1336;48.692;9.144;2022-09-03T07:38:21;20.40;97.20
2653;DHT22;1336;48.692;9.144;2022-09-03T07:39:14;20.40;97.20
2653;DHT22;1336;48.692;9.144;2022-09-03T07:40:07;20.40;97.20
2653;DHT22;1336;48.692;9.144;2022-09-03T07:40:58;20.40;97.20
2653;DHT22;1336;48.692;9.144;2022-09-03T07:41:50;20.40;97.20
2653;DHT22;1336;48.692;9.144;2022-09-03T07:42:41;20.40;97.20
2653;DHT22;1336;48.692;9.144;2022-09-03T07:43:34;20.40;97.20
2653;DHT22;1336;48.692;9.144;2022-09-03T07:44:26;20.40;97.20
2653;DHT22;1336;48.692;9.144;2022-09-03T07:45:18;20.50;97.20
2653;DHT22;1336;48.692;9.144;2022-09-03T07:46:09;20.50;97.20
2653;DHT22;1336;48.692;9.144;2022-09-03T07:47:02;20.50;97.20
2653;DHT22;1336;48.692;9.144;2022-09-03T07:47:53;20.50;97.20
2653;DHT22;1336;48.692;9.144;2022-09-03T07:48:45;20.40;97.20
2653;DHT22;1336;48.692;9.144;2022-09-03T07:49:38;20.40;97.20
2653;DHT22;1336;48.692;9.144;2022-09-03T07:50:30;20.40;97.20
2653;DHT22;1336;48.692;9.144;2022-09-03T07:51:29;20.40;97.20
2653;DHT22;1336;48.692;9.144;2022-09-03T07:52:21;20.40;97.20
2653;DHT22;1336;48.692;9.144;2022-09-03T07:53:15;20.40;97.20
2653;DHT22;1336;48.692;9.144;2022-09-03T07:54:08;20.40;97.20
2653;DHT22;1336;48.692;9.144;2022-09-03T07:55:00;20.40;97.20
2653;DHT22;1336;48.692;9.144;2022-09-03T07:55:52;20.40;97.20
2653;DHT22;1336;48.692;9.144;2022-09-03T07:56:43;20.40;97.20
2653;DHT22;1336;48.692;9.144;2022-09-03T07:57:35;20.40;97.20
2653;DHT22;1336;48.692;9.144;2022-09-03T07:58:57;20.40;97.20
2653;DHT22;1336;48.692;9.144;2022-09-03T07:59:54;20.40;97.20
2653;DHT22;1336;48.692;9.144;2022-09-03T08:00:45;20.40;97.20
2653;DHT22;1336;48.692;9.144;2022-09-03T08:01:38;20.40;97.20
2653;DHT22;1336;48.692;9.144;2022-09-03T08:02:29;20.50;97.20
2653;DHT22;1336;48.692;9.144;2022-09-03T08:03:21;20.50;97.20
2653;DHT22;1336;48.692;9.144;2022-09-03T08:04:12;20.50;97.20
2653;DHT22;1336;48.692;9.144;2022-09-03T08:05:04;20.50;97.20
2653;DHT22;1336;48.692;9.144;2022-09-03T08:05:59;20.50;97.20
2653;DHT22;1336;48.692;9.144;2022-09-03T08:06:51;20.50;97.20
2653;DHT22;1336;48.692;9.144;2022-09-03T08:07:45;20.50;97.20
2653;DHT22;1336;48.692;9.144;2022-09-03T08:08:38;20.50;97.20
2653;DHT22;1336;48.692;9.144;2022-09-03T08:09:29;20.60;97.20
2653;DHT22;1336;48.692;9.144;2022-09-03T08:10:22;20.60;97.20
2653;DHT22;1336;48.692;9.144;2022-09-03T08:11:15;20.60;97.20
2653;DHT22;1336;48.692;9.144;2022-09-03T08:12:07;20.60;97.20
2653;DHT22;1336;48.692;9.144;2022-09-03T08:12:58;20.70;97.20
2653;DHT22;1336;48.692;9.144;2022-09-03T08:13:54;20.70;97.20
2653;DHT22;1336;48.692;9.144;2022-09-03T08:14:47;20.70;97.20
2653;DHT22;1336;48.692;9.144;2022-09-03T08:15:38;20.80;97.20
2653;DHT22;1336;48.692;9.144;2022-09-03T08:16:33;20.80;97.20
2653;DHT22;1336;48.692;9.144;2022-09-03T08:17:25;20.90;97.20
2653;DHT22;1336;48.692;9.144;2022-09-03T08:18:16;21.00;97.20
2653;DHT22;1336;48.692;9.144;2022-09-03T08:19:08;21.00;97.20
2653;DHT22;1336;48.692;9.144;2022-09-03T08:20:01;21.10;97.20
2653;DHT22;1336;48.692;9.144;2022-09-03T08:20:53;21.10;97.20
2653;DHT22;1336;48.692;9.144;2022-09-03T08:21:44;21.20;97.20
2653;DHT22;1336;48.692;9.144;2022-09-03T08:22:36;21.20;97.20
2653;DHT22;1336;48.692;9.144;2022-09-03T08:23:27;21.30;97.20
2653;DHT22;1336;48.692;9.144;2022-09-03T08:24:20;21.30;97.20
2653;DHT22;1336;48.692;9.144;2022-09-03T08:25:14;21.30;97.20
2653;DHT22;1336;48.692;9.144;2022-09-03T08:26:06;21.40;97.20
2653;DHT22;1336;48.692;9.144;2022-09-03T08:26:57;21.40;97.20
2653;DHT22;1336;48.692;9.144;2022-09-03T08:27:49;21.40;97.20
2653;DHT22;1336;48.692;9.144;2022-09-03T08:28:40;21.50;97.20
2653;DHT22;1336;48.692;9.144;2022-09-03T08:29:32;21.50;97.20
2653;DHT22;1336;48.692;9.144;2022-09-03T08:30:23;21.50;97.20
2653;DHT22;1336;48.692;9.144;2022-09-03T08:31:17;21.50;97.20
2653;DHT22;1336;48.692;9.144;2022-09-03T08:32:08;21.60;97.20
2653;DHT22;1336;48.692;9.144;2022-09-03T08:33:01;21.60;97.20
2653;DHT22;1336;48.692;9.144;2022-09-03T08:33:56;21.60;97.20
2653;DHT22;1336;48.692;9.144;2022-09-03T08:34:48;21.60;97.20
2653;DHT22;1336;48.692;9.144;2022-09-03T08:35:40;21.60;97.20
2653;DHT22;1336;48.692;9.144;2022-09-03T08:36:34;21.60;97.20
2653;DHT22;1336;48.692;9.144;2022-09-03T08:37:25;21.70;97.20
2653;DHT22;1336;48.692;9.144;2022-09-03T08:38:18;21.70;97.20
2653;DHT22;1336;48.692;9.144;2022-09-03T08:39:10;21.70;97.20
2653;DHT22;1336;48.692;9.144;2022-09-03T08:40:04;21.80;97.20
2653;DHT22;1336;48.692;9.144;2022-09-03T08:41:05;21.90;97.20
2653;DHT22;1336;48.692;9.144;2022-09-03T08:42:21;21.90;97.20
2653;DHT22;1336;48.692;9.144;2022-09-03T08:43:16;22.00;97.20
2653;DHT22;1336;48.692;9.144;2022-09-03T08:44:19;22.00;97.20
2653;DHT22;1336;48.692;9.144;2022-09-03T08:45:15;22.10;97.20
2653;DHT22;1336;48.692;9.144;2022-09-03T08:46:08;22.10;97.20
2653;DHT22;1336;48.692;9.144;2022-09-03T08:47:04;22.20;97.20
2653;DHT22;1336;48.692;9.144;2022-09-03T08:48:02;22.20;97.20
2653;DHT22;1336;48.692;9.144;2022-09-03T08:48:56;22.20;97.20
2653;DHT22;1336;48.692;9.144;2022-09-03T08:49:51;22.30;97.20
2653;DHT22;1336;48.692;9.144;2022-09-03T08:50:51;22.30;97.20
2653;DHT22;1336;48.692;9.144;2022-09-03T08:51:50;22.30;97.20
2653;DHT22;1336;48.692;9.144;2022-09-03T08:52:46;22.30;97.20
2653;DHT22;1336;48.692;9.144;2022-09-03T08:53:46;22.30;97.20
2653;DHT22;1336;48.692;9.144;2022-09-03T08:54:38;22.30;97.20
2653;DHT22;1336;48.692;9.144;2022-09-03T08:55:33;22.30;97.20
2653;DHT22;1336;48.692;9.144;2022-09-03T08:56:27;22.30;97.20
2653;DHT22;1336;48.692;9.144;2022-09-03T08:57:20;22.30;97.20
2653;DHT22;1336;48.692;9.144;2022-09-03T08:58:14;22.30;97.20
2653;DHT22;1336;48.692;9.144;2022-09-03T08:59:05;22.30;97.20
2653;DHT22;1336;48.692;9.144;2022-09-03T08:59:56;22.30;97.20
2653;DHT22;1336;48.692;9.144;2022-09-03T09:00:51;22.30;97.20
2653;DHT22;1336;48.692;9.144;2022-09-03T09:01:56;22.30;97.20
2653;DHT22;1336;48.692;9.144;2022-09-03T09:02:57;22.30;97.20
2653;DHT22;1336;48.692;9.144;2022-09-03T09:04:04;22.40;97.20
2653;DHT22;1336;48.692;9.144;2022-09-03T09:04:59;22.40;97.20
2653;DHT22;1336;48.692;9.144;2022-09-03T09:05:59;22.40;97.20
2653;DHT22;1336;48.692;9.144;2022-09-03T09:06:59;22.40;97.20
2653;DHT22;1336;48.692;9.144;2022-09-03T09:08:01;22.40;97.20
2653;DHT22;1336;48.692;9.144;2022-09-03T09:09:02;22.40;97.20
2653;DHT22;1336;48.692;9.144;2022-09-03T09:10:02;22.40;97.20
2653;DHT22;1336;48.692;9.144;2022-09-03T09:11:01;22.40;97.20
2653;DHT22;1336;48.692;9.144;2022-09-03T09:12:03;22.40;97.20
2653;DHT22;1336;48.692;9.144;2022-09-03T09:13:06;22.40;97.20
2653;DHT22;1336;48.692;9.144;2022-09-03T09:14:06;22.40;97.20
2653;DHT22;1336;48.692;9.144;2022-09-03T09:15:08;22.40;97.20
2653;DHT22;1336;48.692;9.144;2022-09-03T09:16:05;22.40;97.20
2653;DHT22;1336;48.692;9.144;2022-09-03T09:17:03;22.40;97.20
2653;DHT22;1336;48.692;9.144;2022-09-03T09:18:05;22.40;97.20
2653;DHT22;1336;48.692;9.144;2022-09-03T09:19:07;22.40;97.20
2653;DHT22;1336;48.692;9.144;2022-09-03T09:20:05;22.40;97.20
2653;DHT22;1336;48.692;9.144;2022-09-03T09:21:06;22.40;97.20
2653;DHT22;1336;48.692;9.144;2022-09-03T09:22:08;22.40;97.20
2653;DHT22;1336;48.692;9.144;2022-09-03T09:23:02;22.40;97.20
2653;DHT22;1336;48.692;9.144;2022-09-03T09:24:00;22.40;97.20
2653;DHT22;1336;48.692;9.144;2022-09-03T09:24:52;22.40;97.20
2653;DHT22;1336;48.692;9.144;2022-09-03T09:25:48;22.40;97.20
2653;DHT22;1336;48.692;9.144;2022-09-03T09:26:40;22.40;97.20
2653;DHT22;1336;48.692;9.144;2022-09-03T09:27:32;22.40;97.20
2653;DHT22;1336;48.692;9.144;2022-09-03T09:28:24;22.40;97.20
2653;DHT22;1336;48.692;9.144;2022-09-03T09:29:19;22.50;97.20
2653;DHT22;1336;48.692;9.144;2022-09-03T09:30:10;22.50;97.20
2653;DHT22;1336;48.692;9.144;2022-09-03T09:31:09;22.60;97.20
2653;DHT22;1336;48.692;9.144;2022-09-03T09:32:02;22.70;97.20
2653;DHT22;1336;48.692;9.144;2022-09-03T09:32:55;22.80;97.20
2653;DHT22;1336;48.692;9.144;2022-09-03T09:33:45;22.90;97.20
2653;DHT22;1336;48.692;9.144;2022-09-03T09:34:38;22.90;97.20
2653;DHT22;1336;48.692;9.144;2022-09-03T09:35:30;23.00;97.20
2653;DHT22;1336;48.692;9.144;2022-09-03T09:36:22;23.10;97.20
2653;DHT22;1336;48.692;9.144;2022-09-03T09:37:14;23.20;97.20
2653;DHT22;1336;48.692;9.144;2022-09-03T09:38:06;23.30;97.20
2653;DHT22;1336;48.692;9.144;2022-09-03T09:39:07;23.30;97.20
2653;DHT22;1336;48.692;9.144;2022-09-03T09:39:59;23.40;97.20
2653;DHT22;1336;48.692;9.144;2022-09-03T09:40:50;23.40;97.20
2653;DHT22;1336;48.692;9.144;2022-09-03T09:41:56;23.50;97.20
2653;DHT22;1336;48.692;9.144;2022-09-03T09:42:47;23.60;97.20
2653;DHT22;1336;48.692;9.144;2022-09-03T09:43:39;23.60;97.20
2653;DHT22;1336;48.692;9.144;2022-09-03T09:44:30;23.70;97.20
2653;DHT22;1336;48.692;9.144;2022-09-03T09:45:22;23.80;97.20
2653;DHT22;1336;48.692;9.144;2022-09-03T09:46:14;23.90;97.20
2653;DHT22;1336;48.692;9.144;2022-09-03T09:47:10;23.90;97.20
2653;DHT22;1336;48.692;9.144;2022-09-03T09:48:08;23.90;97.20
2653;DHT22;1336;48.692;9.144;2022-09-03T09:49:00;24.00;97.20
2653;DHT22;1336;48.692;9.144;2022-09-03T09:49:53;24.00;97.20
2653;DHT22;1336;48.692;9.144;2022-09-03T09:50:45;24.00;97.20
2653;DHT22;1336;48.692;9.144;2022-09-03T09:51:36;24.00;97.20
2653;DHT22;1336;48.692;9.144;2022-09-03T09:52:29;24.00;97.20
2653;DHT22;1336;48.692;9.144;2022-09-03T09:53:28;24.00;97.20
2653;DHT22;1336;48.692;9.144;2022-09-03T09:54:24;24.00;97.20
2653;DHT22;1336;48.692;9.144;2022-09-03T09:55:18;24.00;97.20
2653;DHT22;1336;48.692;9.144;2022-09-03T09:56:20;24.00;97.20
2653;DHT22;1336;48.692;9.144;2022-09-03T09:57:16;24.00;97.20
2653;DHT22;1336;48.692;9.144;2022-09-03T09:58:09;24.00;97.20
2653;DHT22;1336;48.692;9.144;2022-09-03T09:59:02;24.00;97.20
2653;DHT22;1336;48.692;9.144;2022-09-03T10:00:04;24.00;97.20
2653;DHT22;1336;48.692;9.144;2022-09-03T10:01:00;23.90;97.20
2653;DHT22;1336;48.692;9.144;2022-09-03T10:02:06;23.90;97.20
2653;DHT22;1336;48.692;9.144;2022-09-03T10:02:58;23.90;97.20
2653;DHT22;1336;48.692;9.144;2022-09-03T10:03:52;23.90;97.20
2653;DHT22;1336;48.692;9.144;2022-09-03T10:04:44;23.90;97.20
2653;DHT22;1336;48.692;9.144;2022-09-03T10:05:36;23.90;97.20
2653;DHT22;1336;48.692;9.144;2022-09-03T10:06:30;23.80;97.20
2653;DHT22;1336;48.692;9.144;2022-09-03T10:07:41;23.80;97.20
2653;DHT22;1336;48.692;9.144;2022-09-03T10:08:33;23.80;97.20
2653;DHT22;1336;48.692;9.144;2022-09-03T10:09:26;23.80;97.20
2653;DHT22;1336;48.692;9.144;2022-09-03T10:10:20;23.70;97.20
2653;DHT22;1336;48.692;9.144;2022-09-03T10:11:11;23.70;97.20
2653;DHT22;1336;48.692;9.144;2022-09-03T10:12:11;23.70;97.20
2653;DHT22;1336;48.692;9.144;2022-09-03T10:13:08;23.70;97.20
2653;DHT22;1336;48.692;9.144;2022-09-03T10:14:03;23.70;97.20
2653;DHT22;1336;48.692;9.144;2022-09-03T10:15:00;23.70;97.20
2653;DHT22;1336;48.692;9.144;2022-09-03T10:15:57;23.70;97.20
2653;DHT22;1336;48.692;9.144;2022-09-03T10:16:54;23.70;97.20
2653;DHT22;1336;48.692;9.144;2022-09-03T10:18:01;23.70;97.20
2653;DHT22;1336;48.692;9.144;2022-09-03T10:18:58;23.70;97.20
2653;DHT22;1336;48.692;9.144;2022-09-03T10:20:00;23.70;97.20
2653;DHT22;1336;48.692;9.144;2022-09-03T10:21:16;23.70;97.20
2653;DHT22;1336;48.692;9.144;2022-09-03T10:22:16;23.70;97.20
2653;DHT22;1336;48.692;9.144;2022-09-03T10:23:14;23.70;97.20
2653;DHT22;1336;48.692;9.144;2022-09-03T10:24:18;23.70;97.20
2653;DHT22;1336;48.692;9.144;2022-09-03T10:25:17;23.70;97.20
2653;DHT22;1336;48.692;9.144;2022-09-03T10:26:12;23.70;97.20
2653;DHT22;1336;48.692;9.144;2022-09-03T10:27:06;23.70;97.20
2653;DHT22;1336;48.692;9.144;2022-09-03T10:28:02;23.70;97.20
2653;DHT22;1336;48.692;9.144;2022-09-03T10:28:57;23.80;97.20
2653;DHT22;1336;48.692;9.144;2022-09-03T10:29:49;23.80;97.20
2653;DHT22;1336;48.692;9.144;2022-09-03T10:30:51;23.80;97.20
2653;DHT22;1336;48.692;9.144;2022-09-03T10:31:54;23.90;97.20
2653;DHT22;1336;48.692;9.144;2022-09-03T10:33:00;24.00;97.20
2653;DHT22;1336;48.692;9.144;2022-09-03T10:34:00;24.10;97.20
2653;DHT22;1336;48.692;9.144;2022-09-03T10:35:02;24.20;97.20
2653;DHT22;1336;48.692;9.144;2022-09-03T10:36:04;24.30;97.20
2653;DHT22;1336;48.692;9.144;2022-09-03T10:37:06;24.40;97.20
2653;DHT22;1336;48.692;9.144;2022-09-03T10:38:07;24.50;97.20
2653;DHT22;1336;48.692;9.144;2022-09-03T10:39:04;24.50;97.20
2653;DHT22;1336;48.692;9.144;2022-09-03T10:40:14;24.50;97.20
2653;DHT22;1336;48.692;9.144;2022-09-03T10:41:18;24.60;97.20
2653;DHT22;1336;48.692;9.144;2022-09-03T10:42:24;24.60;97.20
2653;DHT22;1336;48.692;9.144;2022-09-03T10:43:28;24.60;97.20
2653;DHT22;1336;48.692;9.144;2022-09-03T10:44:35;24.70;97.20
2653;DHT22;1336;48.692;9.144;2022-09-03T10:45:36;24.70;97.20
2653;DHT22;1336;48.692;9.144;2022-09-03T10:46:35;24.70;97.20
2653;DHT22;1336;48.692;9.144;2022-09-03T10:47:50;24.70;97.20
2653;DHT22;1336;48.692;9.144;2022-09-03T10:49:00;24.70;97.20
2653;DHT22;1336;48.692;9.144;2022-09-03T10:49:56;24.70;97.20
2653;DHT22;1336;48.692;9.144;2022-09-03T10:50:52;24.70;97.20
2653;DHT22;1336;48.692;9.144;2022-09-03T10:51:49;24.60;97.20
2653;DHT22;1336;48.692;9.144;2022-09-03T10:52:59;24.60;97.20
2653;DHT22;1336;48.692;9.144;2022-09-03T10:54:10;24.50;97.20
2653;DHT22;1336;48.692;9.144;2022-09-03T10:55:13;24.50;97.20